sensor_id;sensor_type;location;lat;lon;timestamp;pressure;altitude;pressure_sealevel;temperature;humidity
20350;BME280;10332;50.208;18.988;2023-01-30T00:01:18;98121.69;;;-0.61;72.85
20350;BME280;10332;50.208;18.988;2023-01-30T00:03:46;98116.91;;;-0.76;73.12
20350;BME280;10332;50.208;18.988;2023-01-30T00:06:14;98114.81;;;-0.59;72.57
20350;BME280;10332;50.208;18.988;2023-01-30T00:08:42;98097.16;;;-0.71;72.70
20350;BME280;10332;50.208;18.988;2023-01-30T00:11:12;98093.59;;;-0.66;73.05
20350;BME280;10332;50.208;18.988;2023-01-30T00:13:42;98094.44;;;-0.65;72.99
20350;BME280;10332;50.208;18.988;2023-01-30T00:16:10;98087.94;;;-0.78;73.23
20350;BME280;10332;50.208;18.988;2023-01-30T00:18:40;98082.38;;;-0.60;72.87
20350;BME280;10332;50.208;18.988;2023-01-30T00:21:12;98073.94;;;-0.65;73.25
20350;BME280;10332;50.208;18.988;2023-01-30T00:23:41;98065.41;;;-0.66;74.26
20350;BME280;10332;50.208;18.988;2023-01-30T00:26:10;98065.56;;;-0.72;73.31
20350;BME280;10332;50.208;18.988;2023-01-30T00:28:38;98070.88;;;-0.81;73.40
20350;BME280;10332;50.208;18.988;2023-01-30T00:31:07;98055.63;;;-0.86;73.64
20350;BME280;10332;50.208;18.988;2023-01-30T00:33:36;98038.50;;;-0.83;73.71
20350;BME280;10332;50.208;18.988;2023-01-30T00:36:05;98034.59;;;-1.00;74.34
20350;BME280;10332;50.208;18.988;2023-01-30T00:38:33;98029.34;;;-0.94;74.59
20350;BME280;10332;50.208;18.988;2023-01-30T00:41:01;98039.72;;;-0.98;74.69
20350;BME280;10332;50.208;18.988;2023-01-30T00:43:29;98047.13;;;-0.88;74.67
20350;BME280;10332;50.208;18.988;2023-01-30T00:46:27;98045.47;;;-0.90;75.15
20350;BME280;10332;50.208;18.988;2023-01-30T00:49:15;98041.56;;;-1.05;75.26
20350;BME280;10332;50.208;18.988;2023-01-30T00:51:42;98042.66;;;-1.15;76.10
20350;BME280;10332;50.208;18.988;2023-01-30T00:54:10;98029.22;;;-1.26;76.30
20350;BME280;10332;50.208;18.988;2023-01-30T00:56:38;98036.09;;;-1.28;76.59
20350;BME280;10332;50.208;18.988;2023-01-30T00:59:05;98021.69;;;-1.32;77.08
20350;BME280;10332;50.208;18.988;2023-01-30T01:01:33;98031.63;;;-1.59;78.14
20350;BME280;10332;50.208;18.988;2023-01-30T01:04:00;98016.31;;;-1.62;78.32
20350;BME280;10332;50.208;18.988;2023-01-30T01:06:29;98016.41;;;-1.65;78.88
20350;BME280;10332;50.208;18.988;2023-01-30T01:08:56;98007.25;;;-1.77;79.43
20350;BME280;10332;50.208;18.988;2023-01-30T01:11:24;97995.47;;;-1.84;79.71
20350;BME280;10332;50.208;18.988;2023-01-30T01:13:54;97997.09;;;-1.80;80.16
20350;BME280;10332;50.208;18.988;2023-01-30T01:16:24;98003.91;;;-1.79;79.97
20350;BME280;10332;50.208;18.988;2023-01-30T01:18:53;97976.22;;;-2.02;80.72
20350;BME280;10332;50.208;18.988;2023-01-30T01:21:21;97979.53;;;-1.98;81.04
20350;BME280;10332;50.208;18.988;2023-01-30T01:23:51;97979.69;;;-2.04;81.34
20350;BME280;10332;50.208;18.988;2023-01-30T01:26:20;97983.19;;;-2.10;81.52
20350;BME280;10332;50.208;18.988;2023-01-30T01:28:48;97976.44;;;-2.12;82.14
20350;BME280;10332;50.208;18.988;2023-01-30T01:31:16;97956.84;;;-2.13;82.27
20350;BME280;10332;50.208;18.988;2023-01-30T01:33:43;97956.06;;;-2.17;82.54
20350;BME280;10332;50.208;18.988;2023-01-30T01:36:11;97974.00;;;-2.20;83.16
20350;BME280;10332;50.208;18.988;2023-01-30T01:38:56;97958.69;;;-2.20;83.48
20350;BME280;10332;50.208;18.988;2023-01-30T01:41:24;97965.31;;;-2.11;83.32
20350;BME280;10332;50.208;18.988;2023-01-30T01:44:09;97950.94;;;-2.17;83.68
20350;BME280;10332;50.208;18.988;2023-01-30T01:46:58;97938.03;;;-2.11;83.98
20350;BME280;10332;50.208;18.988;2023-01-30T01:49:32;97937.06;;;-2.04;83.80
20350;BME280;10332;50.208;18.988;2023-01-30T01:52:10;97914.00;;;-2.02;84.04
20350;BME280;10332;50.208;18.988;2023-01-30T01:54:55;97892.06;;;-2.12;84.42
20350;BME280;10332;50.208;18.988;2023-01-30T01:57:33;97889.47;;;-2.11;84.83
20350;BME280;10332;50.208;18.988;2023-01-30T02:00:13;97875.06;;;-2.15;84.93
20350;BME280;10332;50.208;18.988;2023-01-30T02:03:11;97853.78;;;-2.17;85.58
20350;BME280;10332;50.208;18.988;2023-01-30T02:05:45;97859.72;;;-2.15;85.28
20350;BME280;10332;50.208;18.988;2023-01-30T02:08:26;97863.25;;;-2.20;85.65
20350;BME280;10332;50.208;18.988;2023-01-30T02:11:08;97858.91;;;-2.17;85.86
20350;BME280;10332;50.208;18.988;2023-01-30T02:13:37;97848.75;;;-2.20;85.84
20350;BME280;10332;50.208;18.988;2023-01-30T02:16:06;97852.19;;;-2.21;86.02
20350;BME280;10332;50.208;18.988;2023-01-30T02:18:38;97868.03;;;-2.05;85.68
20350;BME280;10332;50.208;18.988;2023-01-30T02:33:15;97817.78;;;-2.08;85.14
20350;BME280;10332;50.208;18.988;2023-01-30T02:36:17;97819.47;;;-2.05;85.27
20350;BME280;10332;50.208;18.988;2023-01-30T02:42:22;97805.84;;;-2.06;85.07
20350;BME280;10332;50.208;18.988;2023-01-30T02:45:23;97809.94;;;-2.00;85.19
20350;BME280;10332;50.208;18.988;2023-01-30T02:50:38;97813.09;;;-1.89;84.82
20350;BME280;10332;50.208;18.988;2023-01-30T02:53:07;97790.75;;;-1.81;84.79
20350;BME280;10332;50.208;18.988;2023-01-30T02:55:34;97789.97;;;-1.84;84.56
20350;BME280;10332;50.208;18.988;2023-01-30T02:58:03;97801.94;;;-1.85;84.77
20350;BME280;10332;50.208;18.988;2023-01-30T03:07:01;97789.00;;;-1.79;84.41
20350;BME280;10332;50.208;18.988;2023-01-30T03:17:58;97741.63;;;-1.59;83.40
20350;BME280;10332;50.208;18.988;2023-01-30T03:20:25;97784.28;;;-1.60;83.20
20350;BME280;10332;50.208;18.988;2023-01-30T03:22:53;97765.47;;;-1.59;83.22
20350;BME280;10332;50.208;18.988;2023-01-30T03:25:24;97765.34;;;-1.53;82.84
20350;BME280;10332;50.208;18.988;2023-01-30T03:27:54;97756.13;;;-1.60;83.03
20350;BME280;10332;50.208;18.988;2023-01-30T03:30:25;97771.72;;;-1.69;83.48
20350;BME280;10332;50.208;18.988;2023-01-30T03:32:52;97747.56;;;-1.59;83.01
20350;BME280;10332;50.208;18.988;2023-01-30T03:35:20;97757.16;;;-1.67;83.31
20350;BME280;10332;50.208;18.988;2023-01-30T03:37:48;97746.19;;;-1.70;83.15
20350;BME280;10332;50.208;18.988;2023-01-30T03:40:16;97739.56;;;-1.79;83.47
20350;BME280;10332;50.208;18.988;2023-01-30T03:42:44;97745.38;;;-1.74;83.24
20350;BME280;10332;50.208;18.988;2023-01-30T03:45:12;97742.03;;;-1.76;83.12
20350;BME280;10332;50.208;18.988;2023-01-30T03:47:39;97738.38;;;-1.66;82.90
20350;BME280;10332;50.208;18.988;2023-01-30T03:50:08;97748.56;;;-1.64;83.16
20350;BME280;10332;50.208;18.988;2023-01-30T03:52:36;97730.78;;;-1.69;82.75
20350;BME280;10332;50.208;18.988;2023-01-30T03:55:04;97726.31;;;-1.62;82.93
20350;BME280;10332;50.208;18.988;2023-01-30T03:57:32;97727.75;;;-1.51;82.27
20350;BME280;10332;50.208;18.988;2023-01-30T03:59:59;97729.66;;;-1.59;82.43
20350;BME280;10332;50.208;18.988;2023-01-30T04:02:27;97723.53;;;-1.53;82.29
20350;BME280;10332;50.208;18.988;2023-01-30T04:04:54;97698.66;;;-1.48;81.80
20350;BME280;10332;50.208;18.988;2023-01-30T04:07:22;97709.88;;;-1.54;82.22
20350;BME280;10332;50.208;18.988;2023-01-30T04:09:50;97696.00;;;-1.44;81.56
20350;BME280;10332;50.208;18.988;2023-01-30T04:12:17;97722.53;;;-1.48;81.86
20350;BME280;10332;50.208;18.988;2023-01-30T04:14:45;97703.97;;;-1.56;81.35
20350;BME280;10332;50.208;18.988;2023-01-30T04:17:12;97677.56;;;-1.56;81.92
20350;BME280;10332;50.208;18.988;2023-01-30T04:19:40;97678.34;;;-1.53;82.02
20350;BME280;10332;50.208;18.988;2023-01-30T04:22:07;97679.19;;;-1.54;81.82
20350;BME280;10332;50.208;18.988;2023-01-30T04:24:35;97658.59;;;-1.49;81.05
20350;BME280;10332;50.208;18.988;2023-01-30T04:27:02;97666.38;;;-1.52;81.74
20350;BME280;10332;50.208;18.988;2023-01-30T04:29:30;97672.44;;;-1.56;81.47
20350;BME280;10332;50.208;18.988;2023-01-30T04:31:57;97664.22;;;-1.67;81.73
20350;BME280;10332;50.208;18.988;2023-01-30T04:34:25;97673.56;;;-1.66;81.84
20350;BME280;10332;50.208;18.988;2023-01-30T04:36:52;97654.81;;;-1.67;81.74
20350;BME280;10332;50.208;18.988;2023-01-30T04:39:20;97646.78;;;-1.55;81.44
20350;BME280;10332;50.208;18.988;2023-01-30T04:41:48;97651.56;;;-1.41;81.05
20350;BME280;10332;50.208;18.988;2023-01-30T04:44:15;97642.31;;;-1.47;80.99
20350;BME280;10332;50.208;18.988;2023-01-30T04:46:43;97654.13;;;-1.41;81.00
20350;BME280;10332;50.208;18.988;2023-01-30T04:49:11;97705.34;;;-1.42;80.72
20350;BME280;10332;50.208;18.988;2023-01-30T04:51:38;97659.81;;;-1.31;80.53
20350;BME280;10332;50.208;18.988;2023-01-30T04:54:06;97659.34;;;-1.46;80.95
20350;BME280;10332;50.208;18.988;2023-01-30T04:56:33;97661.53;;;-1.32;80.29
20350;BME280;10332;50.208;18.988;2023-01-30T04:59:01;97636.19;;;-1.41;80.49
20350;BME280;10332;50.208;18.988;2023-01-30T05:01:40;97633.53;;;-1.38;80.63
20350;BME280;10332;50.208;18.988;2023-01-30T05:04:08;97643.78;;;-1.38;80.52
20350;BME280;10332;50.208;18.988;2023-01-30T05:06:36;97636.78;;;-1.31;80.13
20350;BME280;10332;50.208;18.988;2023-01-30T05:09:04;97619.78;;;-1.34;79.71
20350;BME280;10332;50.208;18.988;2023-01-30T05:11:32;97609.34;;;-1.28;79.64
20350;BME280;10332;50.208;18.988;2023-01-30T05:14:00;97608.47;;;-1.27;79.64
20350;BME280;10332;50.208;18.988;2023-01-30T05:16:28;97613.00;;;-1.36;80.05
20350;BME280;10332;50.208;18.988;2023-01-30T05:18:56;97606.28;;;-1.39;80.02
20350;BME280;10332;50.208;18.988;2023-01-30T05:21:26;97617.88;;;-1.27;79.77
20350;BME280;10332;50.208;18.988;2023-01-30T05:23:57;97617.97;;;-1.30;79.49
20350;BME280;10332;50.208;18.988;2023-01-30T05:26:24;97609.81;;;-1.13;78.80
20350;BME280;10332;50.208;18.988;2023-01-30T05:28:55;97581.91;;;-1.23;79.03
20350;BME280;10332;50.208;18.988;2023-01-30T05:31:24;97597.38;;;-1.27;78.80
20350;BME280;10332;50.208;18.988;2023-01-30T05:33:52;97588.13;;;-1.31;79.06
20350;BME280;10332;50.208;18.988;2023-01-30T05:36:22;97604.38;;;-1.32;79.04
20350;BME280;10332;50.208;18.988;2023-01-30T05:38:49;97575.34;;;-1.31;78.82
20350;BME280;10332;50.208;18.988;2023-01-30T05:41:17;97602.16;;;-1.15;78.28
20350;BME280;10332;50.208;18.988;2023-01-30T05:43:49;97599.81;;;-1.23;77.98
20350;BME280;10332;50.208;18.988;2023-01-30T05:46:17;97593.78;;;-1.20;77.99
20350;BME280;10332;50.208;18.988;2023-01-30T05:48:45;97577.19;;;-1.08;77.70
20350;BME280;10332;50.208;18.988;2023-01-30T05:51:30;97552.50;;;-0.83;76.63
20350;BME280;10332;50.208;18.988;2023-01-30T05:53:59;97552.13;;;-0.97;76.83
20350;BME280;10332;50.208;18.988;2023-01-30T05:56:26;97557.47;;;-1.05;77.22
20350;BME280;10332;50.208;18.988;2023-01-30T05:58:55;97536.19;;;-1.07;77.41
20350;BME280;10332;50.208;18.988;2023-01-30T06:01:23;97540.97;;;-0.96;76.59
20350;BME280;10332;50.208;18.988;2023-01-30T06:03:51;97514.78;;;-1.04;76.81
20350;BME280;10332;50.208;18.988;2023-01-30T06:06:20;97515.22;;;-0.92;76.61
20350;BME280;10332;50.208;18.988;2023-01-30T06:08:52;97525.13;;;-1.09;77.13
20350;BME280;10332;50.208;18.988;2023-01-30T06:11:21;97522.44;;;-1.04;76.96
20350;BME280;10332;50.208;18.988;2023-01-30T06:13:49;97502.56;;;-0.96;76.51
20350;BME280;10332;50.208;18.988;2023-01-30T06:16:18;97516.09;;;-0.93;76.87
20350;BME280;10332;50.208;18.988;2023-01-30T06:18:46;97518.78;;;-0.96;76.66
20350;BME280;10332;50.208;18.988;2023-01-30T06:21:14;97528.34;;;-1.02;77.16
20350;BME280;10332;50.208;18.988;2023-01-30T06:23:42;97518.59;;;-0.90;76.86
20350;BME280;10332;50.208;18.988;2023-01-30T06:26:10;97513.41;;;-0.88;76.32
20350;BME280;10332;50.208;18.988;2023-01-30T06:28:37;97512.34;;;-0.82;75.96
20350;BME280;10332;50.208;18.988;2023-01-30T06:31:06;97501.63;;;-0.94;76.21
20350;BME280;10332;50.208;18.988;2023-01-30T06:33:34;97520.44;;;-0.95;76.48
20350;BME280;10332;50.208;18.988;2023-01-30T06:36:02;97515.91;;;-0.87;76.26
20350;BME280;10332;50.208;18.988;2023-01-30T06:38:30;97499.72;;;-0.87;76.09
20350;BME280;10332;50.208;18.988;2023-01-30T06:40:57;97496.00;;;-0.78;75.82
20350;BME280;10332;50.208;18.988;2023-01-30T06:43:25;97486.06;;;-0.88;76.05
20350;BME280;10332;50.208;18.988;2023-01-30T06:45:52;97479.88;;;-0.82;75.59
20350;BME280;10332;50.208;18.988;2023-01-30T06:48:20;97500.19;;;-0.76;75.67
20350;BME280;10332;50.208;18.988;2023-01-30T06:50:47;97492.50;;;-0.76;75.69
20350;BME280;10332;50.208;18.988;2023-01-30T06:53:15;97477.84;;;-0.72;75.37
20350;BME280;10332;50.208;18.988;2023-01-30T06:55:42;97500.06;;;-0.71;74.95
20350;BME280;10332;50.208;18.988;2023-01-30T06:58:13;97488.06;;;-0.71;75.06
20350;BME280;10332;50.208;18.988;2023-01-30T07:00:41;97486.28;;;-0.69;74.70
20350;BME280;10332;50.208;18.988;2023-01-30T07:03:15;97495.59;;;-0.66;74.73
20350;BME280;10332;50.208;18.988;2023-01-30T07:05:45;97487.25;;;-0.46;74.41
20350;BME280;10332;50.208;18.988;2023-01-30T07:08:15;97494.50;;;-0.59;74.94
20350;BME280;10332;50.208;18.988;2023-01-30T07:10:43;97486.63;;;-0.53;75.59
20350;BME280;10332;50.208;18.988;2023-01-30T07:13:12;97463.25;;;-0.44;75.40
20350;BME280;10332;50.208;18.988;2023-01-30T07:15:39;97461.25;;;-0.36;76.78
20350;BME280;10332;50.208;18.988;2023-01-30T07:18:07;97452.38;;;-0.27;73.47
20350;BME280;10332;50.208;18.988;2023-01-30T07:20:34;97486.47;;;-0.23;73.00
20350;BME280;10332;50.208;18.988;2023-01-30T07:23:02;97464.78;;;-0.40;73.32
20350;BME280;10332;50.208;18.988;2023-01-30T07:25:30;97449.22;;;-0.34;73.32
20350;BME280;10332;50.208;18.988;2023-01-30T07:28:01;97433.91;;;-0.37;73.35
20350;BME280;10332;50.208;18.988;2023-01-30T07:30:32;97428.75;;;-0.35;73.77
20350;BME280;10332;50.208;18.988;2023-01-30T07:33:04;97430.69;;;-0.42;73.81
20350;BME280;10332;50.208;18.988;2023-01-30T07:35:35;97462.94;;;-0.35;73.64
20350;BME280;10332;50.208;18.988;2023-01-30T07:38:04;97439.09;;;-0.38;73.70
20350;BME280;10332;50.208;18.988;2023-01-30T07:40:32;97446.53;;;-0.31;73.63
20350;BME280;10332;50.208;18.988;2023-01-30T07:43:09;97476.53;;;-0.33;73.63
20350;BME280;10332;50.208;18.988;2023-01-30T07:45:47;97437.16;;;-0.32;73.81
20350;BME280;10332;50.208;18.988;2023-01-30T07:48:18;97478.75;;;-0.23;73.36
20350;BME280;10332;50.208;18.988;2023-01-30T07:50:45;97446.81;;;-0.15;73.07
20350;BME280;10332;50.208;18.988;2023-01-30T07:53:16;97418.34;;;-0.07;73.07
20350;BME280;10332;50.208;18.988;2023-01-30T07:55:44;97436.25;;;-0.06;73.10
20350;BME280;10332;50.208;18.988;2023-01-30T07:58:13;97419.78;;;0.00;72.92
20350;BME280;10332;50.208;18.988;2023-01-30T08:00:44;97418.34;;;-0.07;72.98
20350;BME280;10332;50.208;18.988;2023-01-30T08:03:13;97430.50;;;0.11;72.76
20350;BME280;10332;50.208;18.988;2023-01-30T08:05:44;97403.72;;;-0.05;73.04
20350;BME280;10332;50.208;18.988;2023-01-30T08:08:13;97398.03;;;0.10;72.53
20350;BME280;10332;50.208;18.988;2023-01-30T08:10:41;97470.31;;;0.21;72.05
20350;BME280;10332;50.208;18.988;2023-01-30T08:13:09;97467.34;;;0.32;71.84
20350;BME280;10332;50.208;18.988;2023-01-30T08:15:36;97417.97;;;0.25;72.15
20350;BME280;10332;50.208;18.988;2023-01-30T08:18:04;97411.28;;;0.43;71.40
20350;BME280;10332;50.208;18.988;2023-01-30T08:20:33;97407.47;;;0.53;71.35
20350;BME280;10332;50.208;18.988;2023-01-30T08:23:01;97392.19;;;0.72;70.33
20350;BME280;10332;50.208;18.988;2023-01-30T08:25:29;97429.38;;;0.84;70.05
20350;BME280;10332;50.208;18.988;2023-01-30T08:27:58;97370.28;;;1.25;68.94
20350;BME280;10332;50.208;18.988;2023-01-30T08:30:28;97357.22;;;1.68;67.10
20350;BME280;10332;50.208;18.988;2023-01-30T08:32:57;97392.81;;;2.17;65.04
20350;BME280;10332;50.208;18.988;2023-01-30T08:35:25;97381.53;;;2.01;65.03
20350;BME280;10332;50.208;18.988;2023-01-30T08:37:53;97380.78;;;1.59;66.06
20350;BME280;10332;50.208;18.988;2023-01-30T08:40:20;97374.50;;;1.27;67.58
20350;BME280;10332;50.208;18.988;2023-01-30T08:42:48;97444.00;;;1.04;68.56
20350;BME280;10332;50.208;18.988;2023-01-30T08:45:15;97376.47;;;1.00;68.88
20350;BME280;10332;50.208;18.988;2023-01-30T08:47:43;97395.84;;;0.87;69.53
20350;BME280;10332;50.208;18.988;2023-01-30T08:50:10;97365.91;;;0.86;69.75
20350;BME280;10332;50.208;18.988;2023-01-30T08:52:38;97383.28;;;0.59;71.34
20350;BME280;10332;50.208;18.988;2023-01-30T08:55:06;97393.16;;;0.48;71.83
20350;BME280;10332;50.208;18.988;2023-01-30T08:57:34;97395.50;;;0.54;71.69
20350;BME280;10332;50.208;18.988;2023-01-30T09:00:04;97373.91;;;0.58;71.62
20350;BME280;10332;50.208;18.988;2023-01-30T09:02:33;97374.44;;;0.44;72.16
20350;BME280;10332;50.208;18.988;2023-01-30T09:05:02;97399.59;;;0.58;72.02
20350;BME280;10332;50.208;18.988;2023-01-30T09:07:31;97379.06;;;0.58;72.26
20350;BME280;10332;50.208;18.988;2023-01-30T09:10:00;97391.47;;;0.47;72.40
20350;BME280;10332;50.208;18.988;2023-01-30T09:12:28;97360.47;;;0.51;72.51
20350;BME280;10332;50.208;18.988;2023-01-30T09:14:55;97359.09;;;0.43;72.69
20350;BME280;10332;50.208;18.988;2023-01-30T09:17:25;97373.31;;;0.51;72.42
20350;BME280;10332;50.208;18.988;2023-01-30T09:19:52;97364.19;;;0.66;72.15
20350;BME280;10332;50.208;18.988;2023-01-30T09:22:20;97333.81;;;0.55;72.18
20350;BME280;10332;50.208;18.988;2023-01-30T09:24:47;97352.75;;;0.73;72.03
20350;BME280;10332;50.208;18.988;2023-01-30T09:27:15;97350.66;;;0.83;71.78
20350;BME280;10332;50.208;18.988;2023-01-30T09:29:42;97338.94;;;0.96;72.56
20350;BME280;10332;50.208;18.988;2023-01-30T09:32:11;97344.09;;;0.76;73.16
20350;BME280;10332;50.208;18.988;2023-01-30T09:34:38;97338.03;;;0.77;73.38
20350;BME280;10332;50.208;18.988;2023-01-30T09:37:06;97320.84;;;0.79;74.08
20350;BME280;10332;50.208;18.988;2023-01-30T09:39:34;97359.44;;;0.77;74.38
20350;BME280;10332;50.208;18.988;2023-01-30T09:48:14;97309.53;;;1.03;74.20
20350;BME280;10332;50.208;18.988;2023-01-30T09:56:04;97295.34;;;0.95;73.53
20350;BME280;10332;50.208;18.988;2023-01-30T09:59:00;97297.44;;;1.05;72.63
20350;BME280;10332;50.208;18.988;2023-01-30T10:04:43;97259.00;;;0.83;75.27
20350;BME280;10332;50.208;18.988;2023-01-30T10:22:34;97264.47;;;0.55;81.89
20350;BME280;10332;50.208;18.988;2023-01-30T10:28:33;97252.16;;;0.64;81.80
20350;BME280;10332;50.208;18.988;2023-01-30T10:31:13;97254.75;;;0.62;82.02
20350;BME280;10332;50.208;18.988;2023-01-30T10:34:03;97244.03;;;0.52;83.52
20350;BME280;10332;50.208;18.988;2023-01-30T10:36:45;97217.84;;;0.44;84.66
20350;BME280;10332;50.208;18.988;2023-01-30T10:42:38;97184.94;;;0.34;85.44
20350;BME280;10332;50.208;18.988;2023-01-30T10:45:15;97192.47;;;0.38;85.83
20350;BME280;10332;50.208;18.988;2023-01-30T10:51:27;97216.31;;;0.40;86.11
20350;BME280;10332;50.208;18.988;2023-01-30T10:57:21;97205.50;;;0.54;84.22
20350;BME280;10332;50.208;18.988;2023-01-30T11:02:59;97173.31;;;0.66;83.18
20350;BME280;10332;50.208;18.988;2023-01-30T11:08:27;97179.94;;;0.90;83.13
20350;BME280;10332;50.208;18.988;2023-01-30T11:10:56;97199.09;;;0.83;83.27
20350;BME280;10332;50.208;18.988;2023-01-30T11:13:32;97202.84;;;0.55;84.39
20350;BME280;10332;50.208;18.988;2023-01-30T11:16:05;97170.53;;;0.70;83.77
20350;BME280;10332;50.208;18.988;2023-01-30T11:18:48;97148.22;;;0.71;84.27
20350;BME280;10332;50.208;18.988;2023-01-30T11:21:37;97147.47;;;0.69;84.25
20350;BME280;10332;50.208;18.988;2023-01-30T11:24:29;97169.50;;;0.74;84.43
20350;BME280;10332;50.208;18.988;2023-01-30T11:27:27;97156.34;;;0.62;85.66
20350;BME280;10332;50.208;18.988;2023-01-30T11:32:37;97136.59;;;0.82;85.37
20350;BME280;10332;50.208;18.988;2023-01-30T11:37:39;97134.13;;;1.00;84.75
20350;BME280;10332;50.208;18.988;2023-01-30T11:40:28;97117.16;;;0.96;85.74
20350;BME280;10332;50.208;18.988;2023-01-30T11:43:12;97120.84;;;0.90;85.95
20350;BME280;10332;50.208;18.988;2023-01-30T11:45:47;97109.69;;;0.72;87.31
20350;BME280;10332;50.208;18.988;2023-01-30T11:48:25;97101.66;;;0.78;86.60
20350;BME280;10332;50.208;18.988;2023-01-30T11:51:15;97132.41;;;0.80;86.58
20350;BME280;10332;50.208;18.988;2023-01-30T11:53:58;97098.34;;;0.95;86.29
20350;BME280;10332;50.208;18.988;2023-01-30T11:56:52;97091.94;;;1.04;87.65
20350;BME280;10332;50.208;18.988;2023-01-30T12:02:26;97092.66;;;1.25;87.35
20350;BME280;10332;50.208;18.988;2023-01-30T12:05:03;97055.47;;;1.14;86.22
20350;BME280;10332;50.208;18.988;2023-01-30T12:07:35;97077.31;;;1.23;86.17
20350;BME280;10332;50.208;18.988;2023-01-30T12:10:30;97094.84;;;1.15;85.99
20350;BME280;10332;50.208;18.988;2023-01-30T12:15:55;97095.06;;;1.10;86.21
20350;BME280;10332;50.208;18.988;2023-01-30T12:21:33;97072.16;;;1.06;87.43
20350;BME280;10332;50.208;18.988;2023-01-30T12:24:20;97073.94;;;1.23;87.11
20350;BME280;10332;50.208;18.988;2023-01-30T12:27:05;97056.00;;;1.21;86.88
20350;BME280;10332;50.208;18.988;2023-01-30T12:30:05;97075.31;;;1.30;86.46
20350;BME280;10332;50.208;18.988;2023-01-30T12:32:37;97072.94;;;1.25;87.24
20350;BME280;10332;50.208;18.988;2023-01-30T12:35:16;97061.06;;;1.23;86.77
20350;BME280;10332;50.208;18.988;2023-01-30T12:54:49;97044.63;;;1.27;93.40
20350;BME280;10332;50.208;18.988;2023-01-30T12:57:06;97043.00;;;1.24;93.90
20350;BME280;10332;50.208;18.988;2023-01-30T13:05:51;97043.63;;;1.29;94.50
20350;BME280;10332;50.208;18.988;2023-01-30T13:11:39;97056.16;;;1.18;95.26
20350;BME280;10332;50.208;18.988;2023-01-30T13:14:40;97031.38;;;1.17;94.70
20350;BME280;10332;50.208;18.988;2023-01-30T13:20:50;97033.53;;;1.07;95.12
20350;BME280;10332;50.208;18.988;2023-01-30T13:26:27;97026.75;;;1.24;94.01
20350;BME280;10332;50.208;18.988;2023-01-30T13:31:59;97023.28;;;1.25;92.89
20350;BME280;10332;50.208;18.988;2023-01-30T13:34:43;97022.13;;;1.13;93.00
20350;BME280;10332;50.208;18.988;2023-01-30T13:37:19;97025.16;;;1.21;91.88
20350;BME280;10332;50.208;18.988;2023-01-30T13:40:03;97033.50;;;1.26;91.08
20350;BME280;10332;50.208;18.988;2023-01-30T13:45:33;96994.72;;;1.31;90.28
20350;BME280;10332;50.208;18.988;2023-01-30T13:51:54;97033.66;;;1.58;88.50
20350;BME280;10332;50.208;18.988;2023-01-30T14:00:24;96976.88;;;5.59;77.42
20350;BME280;10332;50.208;18.988;2023-01-30T14:11:35;96990.63;;;8.04;56.98
20350;BME280;10332;50.208;18.988;2023-01-30T14:14:30;96984.16;;;6.18;63.44
20350;BME280;10332;50.208;18.988;2023-01-30T14:17:14;96990.25;;;4.99;69.14
20350;BME280;10332;50.208;18.988;2023-01-30T14:19:58;97007.94;;;4.23;72.59
20350;BME280;10332;50.208;18.988;2023-01-30T14:22:51;96999.53;;;4.05;73.56
20350;BME280;10332;50.208;18.988;2023-01-30T14:38:33;96995.56;;;2.48;82.31
20350;BME280;10332;50.208;18.988;2023-01-30T14:49:26;97011.47;;;2.23;84.43
20350;BME280;10332;50.208;18.988;2023-01-30T14:51:47;97005.31;;;2.10;85.24
20350;BME280;10332;50.208;18.988;2023-01-30T14:59:39;97025.25;;;2.22;85.68
20350;BME280;10332;50.208;18.988;2023-01-30T15:02:47;97011.50;;;2.06;86.94
20350;BME280;10332;50.208;18.988;2023-01-30T15:05:27;97008.09;;;2.05;87.37
20350;BME280;10332;50.208;18.988;2023-01-30T15:08:09;97014.03;;;2.07;87.42
20350;BME280;10332;50.208;18.988;2023-01-30T15:13:54;97017.16;;;2.12;87.50
20350;BME280;10332;50.208;18.988;2023-01-30T15:19:56;97030.31;;;1.90;87.95
20350;BME280;10332;50.208;18.988;2023-01-30T15:31:32;97037.84;;;2.11;87.69
20350;BME280;10332;50.208;18.988;2023-01-30T15:34:00;97050.19;;;2.04;88.03
20350;BME280;10332;50.208;18.988;2023-01-30T15:36:34;97050.09;;;2.06;87.98
20350;BME280;10332;50.208;18.988;2023-01-30T15:39:38;97047.47;;;2.07;87.84
20350;BME280;10332;50.208;18.988;2023-01-30T15:42:13;97042.69;;;2.17;87.54
20350;BME280;10332;50.208;18.988;2023-01-30T15:45:28;97051.38;;;2.14;88.28
20350;BME280;10332;50.208;18.988;2023-01-30T15:50:59;97056.91;;;2.07;89.39
20350;BME280;10332;50.208;18.988;2023-01-30T15:53:38;97054.94;;;2.12;89.08
20350;BME280;10332;50.208;18.988;2023-01-30T15:56:15;97061.09;;;2.09;88.94
20350;BME280;10332;50.208;18.988;2023-01-30T15:58:44;97059.09;;;2.14;89.07
20350;BME280;10332;50.208;18.988;2023-01-30T16:01:19;97062.69;;;2.12;88.95
20350;BME280;10332;50.208;18.988;2023-01-30T16:03:48;97066.91;;;2.13;89.23
20350;BME280;10332;50.208;18.988;2023-01-30T16:11:40;97069.75;;;2.24;88.14
20350;BME280;10332;50.208;18.988;2023-01-30T16:14:20;97068.94;;;2.23;88.39
20350;BME280;10332;50.208;18.988;2023-01-30T16:17:06;97104.16;;;2.23;88.21
20350;BME280;10332;50.208;18.988;2023-01-30T16:19:37;97074.59;;;2.30;88.10
20350;BME280;10332;50.208;18.988;2023-01-30T16:22:17;97086.03;;;2.24;88.15
20350;BME280;10332;50.208;18.988;2023-01-30T16:24:50;97079.00;;;2.28;88.44
20350;BME280;10332;50.208;18.988;2023-01-30T16:27:30;97093.72;;;2.26;88.52
20350;BME280;10332;50.208;18.988;2023-01-30T16:30:04;97078.25;;;2.26;88.34
20350;BME280;10332;50.208;18.988;2023-01-30T16:32:35;97098.00;;;2.43;87.88
20350;BME280;10332;50.208;18.988;2023-01-30T16:37:57;97080.00;;;2.25;88.25
20350;BME280;10332;50.208;18.988;2023-01-30T16:40:43;97087.31;;;2.33;87.86
20350;BME280;10332;50.208;18.988;2023-01-30T16:43:23;97104.69;;;2.30;88.09
20350;BME280;10332;50.208;18.988;2023-01-30T16:48:42;97114.13;;;2.29;88.35
20350;BME280;10332;50.208;18.988;2023-01-30T16:51:19;97106.41;;;2.29;88.22
20350;BME280;10332;50.208;18.988;2023-01-30T16:54:02;97107.69;;;2.38;88.11